createdAt,value
2023-03-16T00:02:12.092Z,71.34
2023-03-16T00:04:39.454Z,71.15
2023-03-16T00:07:24.762Z,70.95
2023-03-16T00:09:51.344Z,70.99
2023-03-16T00:12:19.581Z,70.86
2023-03-16T00:14:48.911Z,70.93
2023-03-16T00:17:21.132Z,70.91
2023-03-16T00:20:23.044Z,71.08
2023-03-16T00:22:49.860Z,71.54
2023-03-16T00:25:17.369Z,71.30
2023-03-16T00:27:44.035Z,71.51
2023-03-16T00:30:11.646Z,71.48
2023-03-16T00:32:39.332Z,71.43
2023-03-16T00:35:09.372Z,71.26
2023-03-16T00:37:39.838Z,71.31
2023-03-16T00:40:08.036Z,71.40
2023-03-16T00:42:35.083Z,71.60
2023-03-16T00:45:02.316Z,71.75
2023-03-16T00:47:33.072Z,71.81
2023-03-16T00:50:01.660Z,71.66
2023-03-16T00:52:29.352Z,71.57
2023-03-16T00:55:03.528Z,71.53
2023-03-16T00:57:30.519Z,71.39
2023-03-16T00:59:57.437Z,71.32
2023-03-16T01:02:24.931Z,71.44
2023-03-16T01:04:54.830Z,71.46
2023-03-16T01:07:22.049Z,71.54
2023-03-16T01:09:48.744Z,71.46
2023-03-16T01:12:19.601Z,71.21
2023-03-16T01:14:47.279Z,71.28
2023-03-16T01:17:17.211Z,71.41
2023-03-16T01:19:44.597Z,71.77
2023-03-16T01:22:12.177Z,71.84
2023-03-16T01:24:40.944Z,71.66
2023-03-16T01:27:08.904Z,71.29
2023-03-16T01:29:35.820Z,70.71
2023-03-16T01:32:04.419Z,70.56
2023-03-16T01:34:32.007Z,70.45
2023-03-16T01:36:59.368Z,70.20
2023-03-16T01:39:44.592Z,70.26
2023-03-16T01:42:11.902Z,70.29
2023-03-16T01:45:01.669Z,70.45
2023-03-16T01:47:38.539Z,70.40
2023-03-16T01:50:07.585Z,70.39
2023-03-16T01:52:38.461Z,70.32
2023-03-16T01:55:13.477Z,70.28
2023-03-16T01:57:44.836Z,70.39
2023-03-16T02:00:23.620Z,70.51
2023-03-16T02:03:08.199Z,70.45
2023-03-16T02:06:19.243Z,70.48
2023-03-16T02:08:50.326Z,70.69
2023-03-16T02:11:18.238Z,71.08
2023-03-16T02:14:11.900Z,71.41
2023-03-16T02:16:39.768Z,71.78
2023-03-16T02:19:20.165Z,71.62
2023-03-16T02:21:57.086Z,71.70
2023-03-16T02:24:23.915Z,71.78
2023-03-16T02:27:01.923Z,71.93
2023-03-16T02:30:01.444Z,71.82
2023-03-16T02:32:33.518Z,71.91
2023-03-16T02:35:03.009Z,72.11
2023-03-16T02:37:29.817Z,72.24
2023-03-16T02:39:56.530Z,71.82
2023-03-16T02:42:26.447Z,71.92
2023-03-16T02:44:59.311Z,71.67
2023-03-16T02:47:38.274Z,71.68
2023-03-16T02:50:07.053Z,71.46
2023-03-16T02:52:36.911Z,71.34
2023-03-16T02:55:06.644Z,71.26
2023-03-16T02:57:33.971Z,71.17
2023-03-16T03:00:14.164Z,71.39
2023-03-16T03:02:41.109Z,70.82
2023-03-16T03:05:08.271Z,70.74
2023-03-16T03:07:35.432Z,70.69
2023-03-16T03:10:06.648Z,70.78
2023-03-16T03:12:34.578Z,70.52
2023-03-16T03:15:04.242Z,70.50
2023-03-16T03:17:35.465Z,70.66
2023-03-16T03:20:13.882Z,70.91
2023-03-16T03:22:40.830Z,70.99
2023-03-16T03:25:09.422Z,71.46
2023-03-16T03:27:36.106Z,71.91
2023-03-16T03:30:05.412Z,72.33
2023-03-16T03:32:32.090Z,72.95
2023-03-16T03:34:58.853Z,72.82
2023-03-16T03:37:25.619Z,73.18
2023-03-16T03:39:53.564Z,73.23
2023-03-16T03:42:23.990Z,73.32
2023-03-16T03:44:51.696Z,73.19
2023-03-16T03:47:19.724Z,73.15
2023-03-16T03:49:46.420Z,73.22
2023-03-16T03:52:13.378Z,73.23
2023-03-16T03:54:39.991Z,73.41
2023-03-16T03:57:12.914Z,73.39
2023-03-16T03:59:44.072Z,73.46
2023-03-16T04:02:11.836Z,73.50
2023-03-16T04:04:43.577Z,73.55
2023-03-16T04:07:11.740Z,73.57
2023-03-16T04:09:39.438Z,73.60
2023-03-16T04:12:06.632Z,73.48
2023-03-16T04:14:33.883Z,73.57
2023-03-16T04:17:01.781Z,73.68
2023-03-16T04:19:28.622Z,73.75
2023-03-16T04:21:55.504Z,73.73
2023-03-16T04:24:22.457Z,73.74
2023-03-16T04:26:49.389Z,73.70
2023-03-16T04:29:20.041Z,73.83
2023-03-16T04:31:47.127Z,74.37
2023-03-16T04:34:15.619Z,74.15
2023-03-16T04:36:42.632Z,74.19
2023-03-16T04:39:10.606Z,74.07
2023-03-16T04:41:37.470Z,74.05
2023-03-16T04:44:11.618Z,73.99
2023-03-16T04:46:38.465Z,74.10
2023-03-16T04:49:09.829Z,74.31
2023-03-16T04:51:40.695Z,74.29
2023-03-16T04:54:09.313Z,74.41
2023-03-16T04:56:41.576Z,74.43
2023-03-16T04:59:23.544Z,74.43
2023-03-16T05:02:00.618Z,74.47
2023-03-16T05:04:28.270Z,74.50
2023-03-16T05:06:54.920Z,74.47
2023-03-16T05:09:26.470Z,74.42
2023-03-16T05:11:53.114Z,74.46
2023-03-16T05:14:19.788Z,74.42
2023-03-16T05:17:00.187Z,74.37
2023-03-16T05:19:26.824Z,74.40
2023-03-16T05:21:53.426Z,74.47
2023-03-16T05:24:20.173Z,74.56
2023-03-16T05:26:46.856Z,74.69
2023-03-16T05:29:15.010Z,74.84
2023-03-16T05:31:41.736Z,74.88
2023-03-16T05:34:12.453Z,74.88
2023-03-16T05:36:39.216Z,74.91
2023-03-16T05:39:09.051Z,75.05
2023-03-16T05:41:37.964Z,75.05
2023-03-16T05:44:12.230Z,75.00
2023-03-16T05:46:57.480Z,75.02
2023-03-16T05:49:24.260Z,74.99
2023-03-16T05:51:51.467Z,74.96
2023-03-16T05:54:18.225Z,74.87
2023-03-16T05:56:45.696Z,74.71
2023-03-16T05:59:12.350Z,74.70
2023-03-16T06:01:40.181Z,74.70
2023-03-16T06:04:07.416Z,74.71
2023-03-16T06:06:36.263Z,75.23
2023-03-16T06:09:09.363Z,74.96
2023-03-16T06:11:36.129Z,74.72
2023-03-16T06:14:02.931Z,74.57
2023-03-16T06:16:30.346Z,74.33
2023-03-16T06:18:59.234Z,74.16
2023-03-16T06:21:26.703Z,74.13
2023-03-16T06:23:54.548Z,73.99
2023-03-16T06:26:21.417Z,73.79
2023-03-16T06:28:48.951Z,73.58
2023-03-16T06:31:15.863Z,73.49
2023-03-16T06:33:44.074Z,73.35
2023-03-16T06:36:10.730Z,73.17
2023-03-16T06:38:41.031Z,73.13
2023-03-16T06:41:35.795Z,73.07
2023-03-16T06:44:02.765Z,73.08
2023-03-16T06:46:29.736Z,73.05
2023-03-16T06:48:56.985Z,72.92
2023-03-16T06:51:23.625Z,73.00
2023-03-16T06:53:50.808Z,73.00
2023-03-16T06:56:17.512Z,73.08
2023-03-16T06:58:45.367Z,73.13
2023-03-16T07:01:12.618Z,73.10
2023-03-16T07:03:39.520Z,72.99
2023-03-16T07:06:13.744Z,72.82
2023-03-16T07:08:42.581Z,72.90
2023-03-16T07:11:10.326Z,73.00
2023-03-16T07:13:37.586Z,72.87
2023-03-16T07:16:05.343Z,72.76
2023-03-16T07:18:32.699Z,72.53
2023-03-16T07:20:59.483Z,72.43
2023-03-16T07:23:27.201Z,72.37
2023-03-16T07:25:58.037Z,72.19
2023-03-16T07:28:25.486Z,71.97
2023-03-16T07:31:02.880Z,71.80
2023-03-16T07:33:35.891Z,71.48
2023-03-16T07:36:09.281Z,71.32
2023-03-16T07:38:40.063Z,71.11
2023-03-16T07:41:07.197Z,70.98
2023-03-16T07:43:34.786Z,71.06
2023-03-16T07:46:02.435Z,71.06
2023-03-16T07:48:29.136Z,70.92
2023-03-16T07:50:59.537Z,70.40
2023-03-16T07:53:26.560Z,70.01
2023-03-16T07:56:04.213Z,69.80
2023-03-16T07:58:31.865Z,69.65
2023-03-16T08:01:00.116Z,69.53
2023-03-16T08:03:28.391Z,69.38
2023-03-16T08:05:55.680Z,69.15
2023-03-16T08:08:23.271Z,68.93
2023-03-16T08:10:56.479Z,68.78
2023-03-16T08:13:27.369Z,68.87
2023-03-16T08:15:58.602Z,68.71
2023-03-16T08:18:35.482Z,68.49
2023-03-16T08:21:03.395Z,68.35
2023-03-16T08:23:33.624Z,68.27
2023-03-16T08:26:01.225Z,68.09
2023-03-16T08:28:28.027Z,67.93
2023-03-16T08:30:55.699Z,67.77
2023-03-16T08:33:46.973Z,67.04
2023-03-16T08:36:17.455Z,66.70
2023-03-16T08:39:03.708Z,66.66
2023-03-16T08:41:34.786Z,66.14
2023-03-16T08:44:03.910Z,65.72
2023-03-16T08:46:31.008Z,65.82
2023-03-16T08:48:58.540Z,65.24
2023-03-16T08:51:25.821Z,64.96
2023-03-16T08:53:53.166Z,64.52
2023-03-16T08:56:19.927Z,63.55
2023-03-16T08:58:46.704Z,63.20
2023-03-16T09:01:17.589Z,62.74
2023-03-16T09:03:46.546Z,61.34
2023-03-16T09:06:18.678Z,60.85
2023-03-16T09:08:46.020Z,59.90
2023-03-16T09:11:17.751Z,59.62
2023-03-16T09:13:46.123Z,58.95
2023-03-16T09:16:15.806Z,58.28
2023-03-16T09:18:42.894Z,57.75
2023-03-16T09:21:13.172Z,56.88
2023-03-16T09:23:42.610Z,55.02
2023-03-16T09:26:10.241Z,53.55
2023-03-16T09:28:38.940Z,51.64
2023-03-16T09:31:07.623Z,50.34
2023-03-16T09:33:36.198Z,48.98
2023-03-16T09:36:04.392Z,47.08
2023-03-16T09:38:32.181Z,45.49
2023-03-16T09:41:11.029Z,44.00
2023-03-16T09:43:52.547Z,43.28
2023-03-16T09:46:28.660Z,42.21
2023-03-16T09:48:58.057Z,41.92
2023-03-16T09:51:43.482Z,39.65
2023-03-16T09:54:24.756Z,38.62
2023-03-16T09:56:54.481Z,38.77
2023-03-16T09:59:22.679Z,37.08
2023-03-16T10:02:06.093Z,37.26
2023-03-16T10:05:00.560Z,36.03
2023-03-16T10:07:44.380Z,36.04
2023-03-16T10:10:11.111Z,34.55
2023-03-16T10:12:44.117Z,34.61
2023-03-16T10:15:29.842Z,33.42
2023-03-16T10:18:06.536Z,33.09
2023-03-16T10:20:35.332Z,32.82
2023-03-16T10:23:25.762Z,32.72
2023-03-16T10:25:55.030Z,32.11
2023-03-16T10:28:28.579Z,32.72
2023-03-16T10:30:59.757Z,32.27
2023-03-16T10:33:36.709Z,32.88
2023-03-16T10:36:24.453Z,33.01
2023-03-16T10:38:59.781Z,33.81
2023-03-16T10:41:37.403Z,34.76
2023-03-16T10:44:16.914Z,36.32
2023-03-16T10:47:05.639Z,37.16
2023-03-16T10:49:48.834Z,37.91
2023-03-16T10:52:46.826Z,38.79
2023-03-16T10:55:23.812Z,39.15
2023-03-16T10:57:55.091Z,40.23
2023-03-16T11:00:38.532Z,40.64
2023-03-16T11:03:25.020Z,41.24
2023-03-16T11:06:04.179Z,42.19
2023-03-16T11:08:38.752Z,42.80
2023-03-16T11:11:14.689Z,43.39
2023-03-16T11:13:47.129Z,44.09
2023-03-16T11:16:41.535Z,44.38
2023-03-16T11:19:27.467Z,44.96
2023-03-16T11:22:08.980Z,45.60
2023-03-16T11:24:52.506Z,46.08
2023-03-16T11:27:26.286Z,46.53
2023-03-16T11:30:05.414Z,46.75
2023-03-16T11:32:40.253Z,46.88
2023-03-16T11:35:19.784Z,47.28
2023-03-16T11:38:02.367Z,47.69
2023-03-16T11:40:45.427Z,48.05
2023-03-16T11:43:42.619Z,48.32
2023-03-16T11:46:36.799Z,48.70
2023-03-16T11:49:32.698Z,48.68
2023-03-16T11:52:43.910Z,47.82
2023-03-16T11:55:27.403Z,48.30
2023-03-16T11:58:08.661Z,48.58
2023-03-16T12:00:35.184Z,48.30
2023-03-16T12:03:41.933Z,48.43
2023-03-16T12:06:30.682Z,48.35
2023-03-16T12:09:19.994Z,48.34
2023-03-16T12:12:05.924Z,48.43
2023-03-16T12:14:47.771Z,48.78
2023-03-16T12:17:20.939Z,48.86
2023-03-16T12:19:55.612Z,48.58
2023-03-16T12:22:28.657Z,48.06
2023-03-16T12:24:55.393Z,47.69
2023-03-16T12:27:28.013Z,47.04
2023-03-16T12:30:15.049Z,47.31
2023-03-16T12:32:47.190Z,46.83
2023-03-16T12:35:39.421Z,46.27
2023-03-16T12:38:41.451Z,46.34
2023-03-16T12:41:20.826Z,47.19
2023-03-16T12:44:07.530Z,46.93
2023-03-16T12:46:59.455Z,46.92
2023-03-16T12:49:28.813Z,46.75
2023-03-16T12:52:04.515Z,46.83
2023-03-16T12:54:31.258Z,47.02
2023-03-16T12:57:05.135Z,46.62
2023-03-16T12:59:43.067Z,45.90
2023-03-16T13:02:18.315Z,44.70
2023-03-16T13:04:51.744Z,44.47
2023-03-16T13:07:29.333Z,44.86
2023-03-16T13:10:09.991Z,44.89
2023-03-16T13:12:41.538Z,44.41
2023-03-16T13:15:21.441Z,44.78
2023-03-16T13:17:51.803Z,44.58
2023-03-16T13:20:34.112Z,44.42
2023-03-16T13:23:23.109Z,44.11
2023-03-16T13:26:40.060Z,43.45
2023-03-16T13:29:26.446Z,42.95
2023-03-16T13:31:57.117Z,42.66
2023-03-16T13:34:49.788Z,41.73
2023-03-16T13:37:19.784Z,41.82
2023-03-16T13:40:25.014Z,41.91
2023-03-16T13:42:54.785Z,41.11
2023-03-16T13:45:38.659Z,40.79
2023-03-16T13:48:05.506Z,40.39
2023-03-16T13:50:34.413Z,40.24
2023-03-16T13:53:04.523Z,40.46
2023-03-16T13:55:37.592Z,41.05
2023-03-16T13:58:05.314Z,40.98
2023-03-16T14:00:36.854Z,41.06
2023-03-16T14:03:18.556Z,40.80
2023-03-16T14:05:46.175Z,40.03
2023-03-16T14:08:24.661Z,39.33
2023-03-16T14:10:54.908Z,39.36
2023-03-16T14:13:34.266Z,39.53
2023-03-16T14:16:19.994Z,40.12
2023-03-16T14:19:13.898Z,40.62
2023-03-16T14:21:48.501Z,41.04
2023-03-16T14:24:38.784Z,41.10
2023-03-16T14:27:28.463Z,40.88
2023-03-16T14:30:24.585Z,40.57
2023-03-16T14:33:36.072Z,40.25
2023-03-16T14:36:19.894Z,40.12
2023-03-16T14:38:48.786Z,40.42
2023-03-16T14:41:26.200Z,39.71
2023-03-16T14:44:01.177Z,40.20
2023-03-16T14:46:34.579Z,39.67
2023-03-16T14:49:21.155Z,39.78
2023-03-16T14:51:51.394Z,39.33
2023-03-16T14:54:22.538Z,39.12
2023-03-16T14:56:58.418Z,39.38
2023-03-16T14:59:25.018Z,39.38
2023-03-16T15:01:54.761Z,39.60
2023-03-16T15:04:34.909Z,39.67
2023-03-16T15:07:20.142Z,39.90
2023-03-16T15:09:46.900Z,40.16
2023-03-16T15:12:20.212Z,40.07
2023-03-16T15:15:06.649Z,40.17
2023-03-16T15:17:33.544Z,40.21
2023-03-16T15:20:01.259Z,40.32
2023-03-16T15:22:38.273Z,40.45
2023-03-16T15:25:37.272Z,40.40
2023-03-16T15:28:14.499Z,40.17
2023-03-16T15:30:41.579Z,40.27
2023-03-16T15:33:10.866Z,40.40
2023-03-16T15:35:38.571Z,40.25
2023-03-16T15:38:14.354Z,40.28
2023-03-16T15:40:43.687Z,40.04
2023-03-16T15:43:12.880Z,40.08
2023-03-16T15:45:39.674Z,40.43
2023-03-16T15:48:08.141Z,40.46
2023-03-16T15:50:39.218Z,40.34
2023-03-16T15:53:29.863Z,40.47
2023-03-16T15:56:03.184Z,40.93
2023-03-16T15:58:32.692Z,41.34
2023-03-16T16:01:01.020Z,41.58
2023-03-16T16:03:28.471Z,41.83
2023-03-16T16:05:55.592Z,42.12
2023-03-16T16:08:22.599Z,42.22
2023-03-16T16:10:50.866Z,42.29
2023-03-16T16:13:22.266Z,42.34
2023-03-16T16:15:49.987Z,42.59
2023-03-16T16:18:35.333Z,42.89
2023-03-16T16:21:05.594Z,43.04
2023-03-16T16:23:32.941Z,42.72
2023-03-16T16:26:21.334Z,42.65
2023-03-16T16:28:48.135Z,42.53
2023-03-16T16:31:23.103Z,42.56
2023-03-16T16:33:50.386Z,42.16
2023-03-16T16:36:20.427Z,42.27
2023-03-16T16:38:49.173Z,42.51
2023-03-16T16:41:29.731Z,42.74
2023-03-16T16:43:57.024Z,43.11
2023-03-16T16:46:28.472Z,43.29
2023-03-16T16:49:04.217Z,43.41
2023-03-16T16:51:30.989Z,43.51
2023-03-16T16:54:01.132Z,43.69
2023-03-16T16:56:35.477Z,43.93
2023-03-16T16:59:15.676Z,44.11
2023-03-16T17:01:42.591Z,44.32
2023-03-16T17:04:23.334Z,44.50
2023-03-16T17:06:55.321Z,44.70
2023-03-16T17:09:23.535Z,44.74
2023-03-16T17:11:56.024Z,44.90
2023-03-16T17:14:23.982Z,45.22
2023-03-16T17:16:52.041Z,45.41
2023-03-16T17:19:27.931Z,45.55
2023-03-16T17:21:57.564Z,45.72
2023-03-16T17:24:24.760Z,45.97
2023-03-16T17:26:59.243Z,46.43
2023-03-16T17:29:31.453Z,46.75
2023-03-16T17:32:02.486Z,46.92
2023-03-16T17:34:32.959Z,47.05
2023-03-16T17:36:59.655Z,47.23
2023-03-16T17:39:34.140Z,47.34
2023-03-16T17:42:05.298Z,47.44
2023-03-16T17:44:35.518Z,47.57
2023-03-16T17:47:02.441Z,47.77
2023-03-16T17:49:32.122Z,47.91
2023-03-16T17:51:58.902Z,48.05
2023-03-16T17:54:25.456Z,48.26
2023-03-16T17:56:54.500Z,48.48
2023-03-16T17:59:22.397Z,48.54
2023-03-16T18:01:49.178Z,48.66
2023-03-16T18:04:27.450Z,48.60
2023-03-16T18:06:54.283Z,48.67
2023-03-16T18:09:21.073Z,48.74
2023-03-16T18:11:50.935Z,48.84
2023-03-16T18:14:39.914Z,48.94
2023-03-16T18:17:31.044Z,49.05
2023-03-16T18:19:58.984Z,49.07
2023-03-16T18:22:25.866Z,49.05
2023-03-16T18:24:53.951Z,49.11
2023-03-16T18:27:22.459Z,49.15
2023-03-16T18:29:49.225Z,49.21
2023-03-16T18:32:30.093Z,49.26
2023-03-16T18:34:57.317Z,49.56
2023-03-16T18:37:30.515Z,49.53
2023-03-16T18:39:57.190Z,49.57
2023-03-16T18:42:27.929Z,49.68
2023-03-16T18:44:54.893Z,49.76
2023-03-16T18:47:31.302Z,49.81
2023-03-16T18:49:58.525Z,49.91
2023-03-16T18:52:32.710Z,49.94
2023-03-16T18:54:59.432Z,49.98
2023-03-16T18:57:28.339Z,49.95
2023-03-16T18:59:55.064Z,50.05
2023-03-16T19:02:39.738Z,50.09
2023-03-16T19:05:17.362Z,50.18
2023-03-16T19:07:49.303Z,50.30
2023-03-16T19:10:30.002Z,50.36
2023-03-16T19:12:56.679Z,50.41
2023-03-16T19:15:31.912Z,50.41
2023-03-16T19:17:58.823Z,50.50
2023-03-16T19:20:32.137Z,50.60
2023-03-16T19:23:17.033Z,50.73
2023-03-16T19:25:43.689Z,50.83
2023-03-16T19:28:17.088Z,50.93
2023-03-16T19:30:43.857Z,50.96
2023-03-16T19:33:25.978Z,51.00
2023-03-16T19:35:55.769Z,51.10
2023-03-16T19:38:24.843Z,51.17
2023-03-16T19:40:59.520Z,51.24
2023-03-16T19:43:28.841Z,51.35
2023-03-16T19:45:56.468Z,51.42
2023-03-16T19:48:33.211Z,51.54
2023-03-16T19:51:00.531Z,51.67
2023-03-16T19:53:27.452Z,51.99
2023-03-16T19:55:54.836Z,52.18
2023-03-16T19:58:54.627Z,52.16
2023-03-16T20:01:30.298Z,52.36
2023-03-16T20:03:59.672Z,52.37
2023-03-16T20:06:27.160Z,52.45
2023-03-16T20:08:53.888Z,52.52
2023-03-16T20:11:32.184Z,52.62
2023-03-16T20:14:00.141Z,52.71
2023-03-16T20:16:33.595Z,52.75
2023-03-16T20:19:05.252Z,52.80
2023-03-16T20:21:32.653Z,52.92
2023-03-16T20:23:59.464Z,52.98
2023-03-16T20:26:32.708Z,53.06
2023-03-16T20:29:01.755Z,53.18
2023-03-16T20:31:34.213Z,53.25
2023-03-16T20:34:00.978Z,53.30
2023-03-16T20:36:27.791Z,53.41
2023-03-16T20:38:54.447Z,53.48
2023-03-16T20:41:32.424Z,53.57
2023-03-16T20:44:02.059Z,53.65
2023-03-16T20:46:32.660Z,53.74
2023-03-16T20:49:01.370Z,53.90
2023-03-16T20:51:29.047Z,53.99
2023-03-16T20:53:56.207Z,54.12
2023-03-16T20:56:26.953Z,54.29
2023-03-16T20:58:56.047Z,54.57
2023-03-16T21:01:24.576Z,54.70
2023-03-16T21:03:56.057Z,54.83
2023-03-16T21:06:27.510Z,54.92
2023-03-16T21:08:57.700Z,54.98
2023-03-16T21:11:32.356Z,55.21
2023-03-16T21:13:59.003Z,55.25
2023-03-16T21:16:25.764Z,55.39
2023-03-16T21:18:52.486Z,55.53
2023-03-16T21:21:20.521Z,55.64
2023-03-16T21:23:47.626Z,55.77
2023-03-16T21:26:20.183Z,55.91
2023-03-16T21:28:56.744Z,55.96
2023-03-16T21:31:24.968Z,56.00
2023-03-16T21:33:54.395Z,56.00
2023-03-16T21:36:23.922Z,56.08
2023-03-16T21:38:50.920Z,56.13
2023-03-16T21:41:18.043Z,56.19
2023-03-16T21:43:45.391Z,56.35
2023-03-16T21:46:23.841Z,56.49
2023-03-16T21:48:54.654Z,56.56
2023-03-16T21:51:28.518Z,56.76
2023-03-16T21:53:55.150Z,56.80
2023-03-16T21:56:25.950Z,56.97
2023-03-16T21:58:54.264Z,57.09
2023-03-16T22:01:25.384Z,57.76
2023-03-16T22:03:57.326Z,57.87
2023-03-16T22:06:28.008Z,57.86
2023-03-16T22:08:57.547Z,58.21
2023-03-16T22:11:28.109Z,58.27
2023-03-16T22:13:57.436Z,58.39
2023-03-16T22:16:28.100Z,58.32
2023-03-16T22:18:57.040Z,58.30
2023-03-16T22:21:48.517Z,58.32
2023-03-16T22:24:25.352Z,58.33
2023-03-16T22:26:53.660Z,58.32
2023-03-16T22:29:26.259Z,58.33
2023-03-16T22:32:04.258Z,58.48
2023-03-16T22:34:55.785Z,59.01
2023-03-16T22:37:26.446Z,58.82
2023-03-16T22:39:53.759Z,59.03
2023-03-16T22:42:28.071Z,58.94
2023-03-16T22:44:56.141Z,58.90
2023-03-16T22:47:26.527Z,58.97
2023-03-16T22:49:53.899Z,59.20
2023-03-16T22:52:28.311Z,59.14
2023-03-16T22:54:55.501Z,59.34
2023-03-16T22:57:22.831Z,59.37
2023-03-16T22:59:50.944Z,59.45
2023-03-16T23:02:22.222Z,59.48
2023-03-16T23:04:48.925Z,59.55
2023-03-16T23:07:17.057Z,59.64
2023-03-16T23:09:44.061Z,59.70
2023-03-16T23:12:21.264Z,59.80
2023-03-16T23:14:48.691Z,59.84
2023-03-16T23:17:22.247Z,59.85
2023-03-16T23:19:49.008Z,59.95
2023-03-16T23:22:15.864Z,60.07
2023-03-16T23:24:43.263Z,60.17
2023-03-16T23:27:22.786Z,60.28
2023-03-16T23:29:49.877Z,60.33
2023-03-16T23:32:19.715Z,60.43
2023-03-16T23:34:46.402Z,60.58
2023-03-16T23:37:13.211Z,60.69
2023-03-16T23:39:40.011Z,60.88
2023-03-16T23:42:07.189Z,60.97
2023-03-16T23:44:33.917Z,61.14
2023-03-16T23:47:00.874Z,61.31
2023-03-16T23:49:33.380Z,61.39
2023-03-16T23:52:02.199Z,61.53
2023-03-16T23:54:31.702Z,61.65
2023-03-16T23:56:58.778Z,61.80
2023-03-16T23:59:26.678Z,61.84
